ELIMINATOR 2019 - ETAP IV

Wydarzenie:
Organizator:
Fundacja Bieg Rzeźnika
Data:
2019-06-08
Miejsce:
Ustroń
Dystans:
1.7 km
Zgłoszonych:
204
Wystartowało:
45
Nie ukończyło:
0
Ukończyło:
45
Na trasie:
0
Pełne wyniki :
Wyniki uproszczone:
Wyniki nieoficjalne !!!
Klasyfikacje w punktach pomiarowych: 0.9km | Meta
Klasyfikacje wg kategorii: Wszyscy | K Open | M Open | 1KFala | 1MFala | K20 | M20 | K30 | M30 | K40 | M40 | K50 | M50 | K60 | M60

MscZawodnikNumerKlubMiejscowośćKrajKategoriaMkatK/M0.9kmCzas
netto
1.7km
Czas
brutto
1.7km
Różn.Tempo
min/km
Tempo
km/h
       
1LEPIARZ Sylwester 2002LKB RUDNIKWRONÓWM201M 100:15:59.8000:15:59.80 9:246.4
2MISIAK Bartosz 2147ALPIN SPORT HOKA ONE ONE TEAMCESKY TESINM301M 200:16:37.5500:16:37.55+00:00:379:466.1
3BIERNAWSKI Piotr 2004ATTIQ TEAM/SALMINGNOWY TARGM401M 300:16:57.7000:16:57.70+00:00:579:586
4JAŚTAL Piotr 2126LKB RUDNIK/AZS UJK KIELCEDOMASZOWICEM202M 400:17:09.9000:17:09.90+00:01:1010:055.9
5SKUPIEŃ Tomasz 2003MUAY RUNNING TEAMSKAWINKIM302M 500:17:16.0500:17:16.05+00:01:1610:095.9
6GAWLAS Dominik 2007UZDROWISKOWY TEAMCIESZYNM303M 600:17:19.4500:17:19.45+00:01:1910:115.9
7JAWORSKI Zbigniew 2146...KLUSZKOWCEM402M 700:17:39.7500:17:39.75+00:01:3910:225.8
8BROJ Marcel 2142BROJ TEAM ŹLINICEŹLINICEM203M 800:17:43.9500:17:43.95+00:01:4410:255.8
9KOZIOŁ Kamil 2136G.O.A.T. TEAM / MŁYN TRAIL MICHAŁOWICEMICHAŁOWICEM204M 900:18:24.2500:18:24.25+00:02:2410:495.5
10HUZIOR Piotr 2162PTTIQNOWY TARGM403M 1000:18:45.6500:18:45.65+00:02:4511:015.4
11KAPAON Łazarz 2020CAZZO CLUB RUNNING TEAM/RUNTATA.PLWARSZAWAM205M 1100:18:56.0500:18:56.05+00:02:5611:085.4
12KUBACZKA Grzegorz 2091WWW.AG-ARCHITEKCI.PLSKOCZÓWM304M 1200:19:14.7500:19:14.75+00:03:1411:185.3
13JANUSZYK Iwona 1002KS KANDAHAR/ATTIQ TEAMOŚWIĘCIMK201K 100:08:5900:19:27.7000:19:27.70+00:03:2711:265.2
14FABIAN Marcel 2135SOCIOS SILESIAPYSKOWICEM206M 1300:19:28.5500:19:28.55+00:03:2811:275.2
15BEDNARZ Adam 2016KS ŻEGLINA SIERADZZŁOCZEWM207M 1400:19:44.6000:19:44.60+00:03:4411:365.2
16BUCZYŃSKI Adam 2024NON STOP TRAILKRAKÓWM404M 1500:19:49.3000:19:49.30+00:03:4911:395.1
17SOKOŁOWSKI Marek 2006ALPIN SPORT HOKA ONE ONE TEAMMYSŁOWICE-WESOŁAM501M 1600:20:06.8500:20:06.85+00:04:0711:495.1
18DYCZEK Mariusz 2022DYCZUŚ TEAMZDZIESZOWICEM405M 1700:20:09.1500:20:09.15+00:04:0911:515.1
19URBAŃCZYK Karol 2044GLIWICEM208M 1800:20:15.0500:20:15.05+00:04:1511:545
20CZOK Maria 1004ALPIN SPORT HOKA ONE ONE TEAM/ UBSSTRZELCE OPOLSKIEK301K 200:09:2600:20:31.1500:20:31.15+00:04:3112:045
21ZAKOWICZ Paweł 2144PIECHOTĄ PO SCHODACH - ŁÓDŹHALINÓWM305M 1900:20:38.8000:20:38.80+00:04:3912:084.9
22BADURA Adam 2153FORMA WODZISŁAW ŚLĄSKIRYBNIKM406M 2000:20:43.4000:20:43.40+00:04:4312:114.9
23FLISIŃSKI Łukasz 2071SOSNOWIECM306M 2100:20:47.0500:20:47.05+00:04:4712:134.9
24ZATORSKA Izabela 1007ALPIN SPORT HOKA ONE ONETEAMWROCANKAK501K 300:09:3100:20:51.2500:20:51.25+00:04:5112:154.9
25MAGIERA Janusz 2005FORMA WODZISŁAW ŚLĄSKIWODZISŁAW ŚLĄSKIM502M 2200:20:53.8000:20:53.80+00:04:5412:174.9
26MALINOWSKI Mateusz 2012MYSŁOWICEM307M 2300:21:00.5000:21:00.50+00:05:0012:214.9
27JAKIEŁA Michał 2143KRAKÓWM308M 2400:21:02.6500:21:02.65+00:05:0212:224.8
28KURYŁO Jakub 2092AUGUSTÓWM209M 2500:21:13.5000:21:13.50+00:05:1312:284.8
29KORCZ Daniel 2161JAWORZNO RUNNERSJAWORZNOM407M 2600:21:16.6000:21:16.60+00:05:1612:304.8
30TOKAREWICZ Damian 2041ZEBRYZEBRZYDOWICEM309M 2700:21:19.6500:21:19.65+00:05:1912:324.8
31TARGOSZ Michał Mateusz 2123FISI COMPRESSPORT NB TEAMKRAKÓWM3010M 2800:21:31.4000:21:31.40+00:05:3112:394.7
32SNARSKI Dariusz 2060WATAHA-ŁĄCZY NAS BIEGANIEKATOWICEM408M 2900:21:32.3500:21:32.35+00:05:3212:404.7
33SKALSKA Anna 1003CARBON OCR RACING TEAM FESTIWAL BIEGOWY KRYNICA ZDRÓJBYTOMK302K 400:09:5100:21:56.3000:21:56.30+00:05:5612:544.7
34SZAFRANEK Paweł 2069BIEGIEM PRZEZ CHYBIEUSTROŃM2010M 3000:22:09.7000:22:09.70+00:06:0913:014.6
35KUŚMIERSKI Michał 2038NO I?BIELSKO-BIAŁAM409M 3100:10:4400:22:29.2000:22:29.20+00:06:2913:134.5
36GRUND Marek 2011MAFIA TEAM LUBLINIECSTRZEBIŃM3011M 3200:22:35.0000:22:35.00+00:06:3513:174.5
37WIECZOREK Damian 2131UZDROWISKOKATOWICEM4010M 3300:10:2000:22:52.5000:22:52.50+00:06:5213:274.5
38BOLECHOWSKA Dominika 1039ALPIN SPORT HOKA ONE ONETEAMK401K 500:11:0600:22:55.6500:22:55.65+00:06:5513:284.5
39FIJAK Jan 2054SIENNAM4011M 3400:10:2200:23:34.8500:23:34.85+00:07:3513:514.3
40TOPOROWICZ Agata 1024BIELSKO-BIAŁAK402K 600:10:5300:23:41.2000:23:41.20+00:07:4113:554.3
41CHAWONIOK Anna 1035K202K 700:11:4100:25:51.2500:25:51.25+00:09:5115:123.9
42SZKODA Dariusz 2164SOCIOS SILESIARUDA ŚLĄSKAM3012M 3500:12:0200:26:19.1000:26:19.10+00:10:1915:283.9
43BRÓG Wojciech 2009OLKUSZM4012M 3600:12:0200:26:24.4000:26:24.40+00:10:2415:313.9
44LANGE Beata 1005BIŁGORAJ BIEGABIŁGORAJK403K 800:13:1000:28:41.1000:28:41.10+00:12:4116:523.6
45KONDRATIUK Ira 1019BIEGAM ŻEBY ŻREĆ WIĘCEJ CIASTKÓWBIELSKO-BIAŁAK203K 900:13:1600:28:41.1000:28:41.10+00:12:4116:523.6
Znaleziono 45 wynik(ów)